Terminal Aerodrome Forecast
Issued by NWS Green Bay, WI

Home | Current Version | Previous Version | Graphics & Text | Print | Product List | Glossary On
Versions: 1 2 3 4 5 6 7 8 9 10 11 12 13 14 15 16 17 18 19 20 21 22
000
FTUS43 KGRB 230945 AAB
TAFGRB
TAF AMD
KGRB 230945Z 2310/2406 35009KT 4SM BR BKN005 OVC010
     FM231400 01012G18KT P6SM SCT015 BKN250
     FM232300 04014G19KT P6SM SCT040 BKN120=

USA.gov is the U.S. government's official web portal to all federal, state and local government web resources and services.